createdAt,value
2023-05-08T00:02:43.091Z,8.18
2023-05-08T00:05:45.030Z,8.28
2023-05-08T00:08:46.630Z,8.18
2023-05-08T00:11:48.460Z,8.08
2023-05-08T00:14:51.394Z,8.05
2023-05-08T00:17:53.062Z,8.07
2023-05-08T00:20:54.819Z,8.05
2023-05-08T00:23:56.475Z,8.02
2023-05-08T00:26:58.075Z,8.06
2023-05-08T00:30:01.084Z,8.06
2023-05-08T00:33:02.813Z,8.26
2023-05-08T00:36:05.569Z,8.03
2023-05-08T00:39:07.186Z,8.07
2023-05-08T00:42:08.825Z,8.05
2023-05-08T00:45:12.047Z,8.05
2023-05-08T00:48:13.703Z,8.01
2023-05-08T00:51:16.042Z,7.96
2023-05-08T00:54:17.945Z,7.91
2023-05-08T00:57:19.871Z,7.78
2023-05-08T01:00:22.900Z,7.75
2023-05-08T01:03:25.531Z,7.85
2023-05-08T01:06:27.491Z,7.78
2023-05-08T01:09:29.397Z,7.81
2023-05-08T01:12:52.870Z,7.76
2023-05-08T01:16:06.891Z,7.69
2023-05-08T01:19:32.375Z,7.82
2023-05-08T01:23:06.065Z,7.65
2023-05-08T01:26:32.785Z,7.72
2023-05-08T01:30:12.776Z,7.56
2023-05-08T01:33:21.126Z,7.58
2023-05-08T01:36:29.089Z,7.61
2023-05-08T01:39:39.473Z,7.49
2023-05-08T01:42:49.054Z,7.62
2023-05-08T01:45:52.975Z,7.75
2023-05-08T01:49:00.241Z,7.65
2023-05-08T01:52:06.968Z,7.41
2023-05-08T01:55:11.358Z,7.36
2023-05-08T01:58:13.572Z,7.37
2023-05-08T02:01:18.552Z,7.25
2023-05-08T02:04:23.460Z,7.00
2023-05-08T02:07:26.569Z,7.11
2023-05-08T02:10:29.000Z,7.03
2023-05-08T02:13:31.988Z,7.01
2023-05-08T02:16:34.465Z,7.01
2023-05-08T02:19:41.222Z,6.92
2023-05-08T02:22:44.643Z,6.90
2023-05-08T02:25:47.175Z,6.86
2023-05-08T02:28:50.571Z,6.85
2023-05-08T02:31:54.160Z,6.77
2023-05-08T02:35:03.027Z,6.72
2023-05-08T02:38:06.536Z,6.66
2023-05-08T02:41:09.885Z,6.64
2023-05-08T02:44:12.412Z,6.76
2023-05-08T02:47:21.164Z,6.64
2023-05-08T02:50:33.153Z,6.79
2023-05-08T02:53:37.751Z,6.99
2023-05-08T02:56:47.216Z,6.96
2023-05-08T02:59:57.063Z,6.98
2023-05-08T03:03:04.448Z,7.11
2023-05-08T03:06:11.962Z,7.18
2023-05-08T03:09:18.864Z,7.24
2023-05-08T03:12:24.685Z,7.29
2023-05-08T03:15:33.002Z,7.38
2023-05-08T03:18:41.357Z,7.66
2023-05-08T03:21:46.159Z,7.41
2023-05-08T03:24:50.086Z,7.50
2023-05-08T03:27:51.761Z,7.49
2023-05-08T03:30:54.078Z,7.57
2023-05-08T03:34:02.194Z,7.64
2023-05-08T03:37:07.631Z,7.62
2023-05-08T03:40:10.742Z,7.77
2023-05-08T03:43:12.767Z,7.85
2023-05-08T03:46:16.552Z,7.82
2023-05-08T03:49:18.719Z,7.97
2023-05-08T03:52:21.832Z,8.05
2023-05-08T03:55:23.524Z,8.04
2023-05-08T03:58:35.712Z,7.94
2023-05-08T04:01:39.837Z,8.12
2023-05-08T04:04:43.928Z,8.05
2023-05-08T04:07:53.121Z,8.14
2023-05-08T04:11:02.889Z,8.19
2023-05-08T04:14:05.481Z,8.35
2023-05-08T04:17:10.622Z,8.35
2023-05-08T04:20:17.074Z,8.55
2023-05-08T04:23:22.163Z,8.72
2023-05-08T04:26:24.426Z,8.70
2023-05-08T04:29:26.304Z,8.94
2023-05-08T04:32:29.219Z,9.01
2023-05-08T04:35:31.107Z,8.93
2023-05-08T04:38:37.531Z,8.91
2023-05-08T04:41:39.191Z,9.01
2023-05-08T04:44:41.064Z,9.06
2023-05-08T04:47:42.725Z,9.10
2023-05-08T04:50:44.418Z,9.21
2023-05-08T04:53:47.488Z,9.26
2023-05-08T04:56:49.372Z,9.35
2023-05-08T04:59:51.455Z,9.48
2023-05-08T05:02:53.099Z,9.38
2023-05-08T05:05:57.920Z,9.32
2023-05-08T05:09:00.871Z,9.30
2023-05-08T05:12:02.676Z,9.41
2023-05-08T05:15:04.988Z,9.56
2023-05-08T05:18:06.980Z,9.74
2023-05-08T05:21:08.647Z,9.79
2023-05-08T05:24:11.729Z,9.88
2023-05-08T05:27:13.336Z,10.03
2023-05-08T05:30:15.524Z,10.07
2023-05-08T05:33:17.517Z,10.29
2023-05-08T05:36:19.496Z,10.37
2023-05-08T05:39:22.798Z,10.53
2023-05-08T05:42:24.500Z,10.48
2023-05-08T05:45:26.484Z,10.52
2023-05-08T05:48:28.127Z,10.52
2023-05-08T05:51:30.013Z,10.53
2023-05-08T05:54:33.033Z,10.66
2023-05-08T05:57:34.693Z,10.74
2023-05-08T06:00:36.634Z,10.80
2023-05-08T06:03:38.590Z,10.72
2023-05-08T06:06:40.302Z,10.89
2023-05-08T06:09:43.259Z,10.84
2023-05-08T06:12:44.889Z,10.97
2023-05-08T06:15:46.794Z,11.18
2023-05-08T06:18:48.460Z,11.18
2023-05-08T06:21:51.090Z,11.20
2023-05-08T06:24:54.113Z,11.42
2023-05-08T06:27:55.916Z,11.63
2023-05-08T06:30:57.840Z,11.55
2023-05-08T06:33:59.750Z,11.53
2023-05-08T06:37:01.329Z,11.45
2023-05-08T06:40:11.960Z,11.77
2023-05-08T06:43:14.565Z,11.82
2023-05-08T06:46:16.324Z,12.24
2023-05-08T06:49:17.988Z,12.37
2023-05-08T06:52:19.771Z,12.55
2023-05-08T06:55:23.250Z,12.57
2023-05-08T06:58:25.003Z,12.64
2023-05-08T07:01:27.093Z,12.61
2023-05-08T07:04:30.845Z,12.48
2023-05-08T07:07:34.296Z,12.41
2023-05-08T07:10:37.393Z,12.47
2023-05-08T07:13:39.265Z,12.41
2023-05-08T07:16:40.950Z,12.50
2023-05-08T07:19:42.897Z,12.32
2023-05-08T07:22:45.654Z,12.21
2023-05-08T07:25:48.924Z,12.39
2023-05-08T07:28:50.560Z,12.41
2023-05-08T07:31:52.478Z,12.45
2023-05-08T07:34:54.307Z,12.38
2023-05-08T07:37:56.372Z,12.49
2023-05-08T07:40:59.560Z,12.55
2023-05-08T07:44:01.471Z,12.65
2023-05-08T07:47:03.595Z,12.82
2023-05-08T07:50:06.329Z,13.02
2023-05-08T07:53:08.023Z,12.99
2023-05-08T07:56:11.404Z,12.87
2023-05-08T07:59:13.584Z,13.09
2023-05-08T08:02:15.893Z,13.21
2023-05-08T08:05:20.072Z,13.24
2023-05-08T08:08:21.721Z,13.33
2023-05-08T08:11:24.973Z,13.38
2023-05-08T08:14:26.854Z,13.33
2023-05-08T08:17:29.174Z,13.34
2023-05-08T08:20:31.006Z,13.50
2023-05-08T08:23:32.648Z,13.61
2023-05-08T08:26:35.968Z,13.68
2023-05-08T08:29:37.754Z,13.48
2023-05-08T08:32:39.466Z,13.80
2023-05-08T08:35:41.386Z,13.81
2023-05-08T08:38:43.440Z,13.82
2023-05-08T08:41:46.810Z,13.92
2023-05-08T08:44:48.512Z,14.08
2023-05-08T08:47:52.467Z,14.43
2023-05-08T08:51:02.352Z,14.39
2023-05-08T08:54:07.900Z,14.34
2023-05-08T08:57:11.960Z,14.29
2023-05-08T09:00:15.490Z,14.23
2023-05-08T09:03:17.052Z,14.36
2023-05-08T09:06:19.718Z,14.59
2023-05-08T09:09:21.394Z,14.54
2023-05-08T09:12:24.427Z,14.82
2023-05-08T09:15:28.353Z,14.81
2023-05-08T09:18:30.283Z,14.83
2023-05-08T09:21:32.312Z,14.99
2023-05-08T09:24:55.574Z,15.07
2023-05-08T09:28:15.688Z,15.13
2023-05-08T09:31:17.332Z,15.18
2023-05-08T09:34:26.426Z,15.37
2023-05-08T09:37:28.999Z,15.35
2023-05-08T09:40:30.920Z,15.46
2023-05-08T09:43:34.111Z,15.41
2023-05-08T09:46:35.806Z,15.44
2023-05-08T09:49:37.489Z,15.56
2023-05-08T09:52:45.711Z,15.40
2023-05-08T09:55:47.720Z,15.52
2023-05-08T09:58:50.723Z,15.48
2023-05-08T10:01:53.283Z,15.56
2023-05-08T10:04:55.012Z,15.80
2023-05-08T10:07:57.196Z,15.74
2023-05-08T10:11:13.561Z,15.69
2023-05-08T10:14:17.126Z,15.65
2023-05-08T10:17:25.194Z,15.69
2023-05-08T10:20:30.163Z,15.66
2023-05-08T10:23:33.918Z,15.82
2023-05-08T10:26:40.895Z,15.85
2023-05-08T10:29:52.676Z,15.98
2023-05-08T10:32:55.505Z,16.11
2023-05-08T10:35:58.020Z,16.18
2023-05-08T10:38:59.868Z,16.35
2023-05-08T10:42:01.761Z,16.37
2023-05-08T10:45:06.460Z,16.33
2023-05-08T10:48:19.896Z,16.26
2023-05-08T10:51:28.681Z,16.28
2023-05-08T10:54:38.607Z,16.33
2023-05-08T10:57:40.230Z,16.30
2023-05-08T11:01:12.526Z,16.27
2023-05-08T11:04:21.336Z,16.37
2023-05-08T11:07:30.607Z,16.46
2023-05-08T11:10:33.043Z,16.61
2023-05-08T11:13:36.848Z,16.62
2023-05-08T11:17:08.689Z,16.76
2023-05-08T11:20:11.133Z,16.67
2023-05-08T11:23:22.513Z,16.64
2023-05-08T11:26:38.811Z,16.75
2023-05-08T11:29:40.558Z,16.74
2023-05-08T11:33:16.965Z,16.84
2023-05-08T11:36:20.323Z,16.82
2023-05-08T11:39:21.737Z,16.85
2023-05-08T11:42:35.431Z,16.92
2023-05-08T11:45:40.383Z,17.08
2023-05-08T11:48:43.612Z,17.13
2023-05-08T11:51:46.553Z,17.12
2023-05-08T11:54:49.059Z,17.23
2023-05-08T11:57:55.169Z,17.16
2023-05-08T12:00:57.227Z,17.29
2023-05-08T12:04:05.782Z,17.25
2023-05-08T12:07:07.719Z,17.28
2023-05-08T12:10:10.168Z,17.33
2023-05-08T12:13:19.024Z,17.40
2023-05-08T12:16:22.234Z,17.53
2023-05-08T12:19:25.608Z,17.49
2023-05-08T12:22:27.408Z,17.56
2023-05-08T12:25:29.557Z,17.33
2023-05-08T12:28:31.336Z,17.32
2023-05-08T12:31:34.045Z,17.49
2023-05-08T12:34:37.208Z,17.56
2023-05-08T12:37:40.240Z,17.64
2023-05-08T12:40:43.830Z,17.74
2023-05-08T12:43:48.356Z,17.63
2023-05-08T12:46:50.939Z,17.84
2023-05-08T12:49:57.847Z,17.89
2023-05-08T12:53:02.689Z,18.00
2023-05-08T12:56:04.904Z,18.12
2023-05-08T12:59:06.619Z,18.16
2023-05-08T13:02:16.861Z,17.98
2023-05-08T13:05:21.912Z,17.97
2023-05-08T13:08:32.896Z,17.99
2023-05-08T13:11:34.558Z,17.95
2023-05-08T13:14:36.540Z,17.87
2023-05-08T13:17:38.278Z,17.92
2023-05-08T13:20:42.090Z,18.03
2023-05-08T13:23:45.794Z,18.01
2023-05-08T13:26:48.129Z,18.08
2023-05-08T13:29:49.946Z,18.13
2023-05-08T13:32:52.726Z,18.14
2023-05-08T13:35:55.994Z,18.23
2023-05-08T13:38:57.701Z,18.32
2023-05-08T13:41:59.355Z,18.37
2023-05-08T13:45:01.836Z,18.33
2023-05-08T13:48:04.236Z,18.43
2023-05-08T13:51:07.349Z,18.55
2023-05-08T13:54:12.190Z,18.79
2023-05-08T13:57:13.955Z,19.05
2023-05-08T14:00:16.710Z,19.24
2023-05-08T14:03:18.503Z,19.15
2023-05-08T14:06:21.856Z,19.29
2023-05-08T14:09:23.837Z,19.25
2023-05-08T14:12:25.486Z,19.47
2023-05-08T14:15:34.759Z,19.38
2023-05-08T14:18:39.143Z,19.28
2023-05-08T14:21:42.135Z,19.06
2023-05-08T14:24:44.135Z,18.99
2023-05-08T14:27:45.788Z,19.10
2023-05-08T14:30:47.450Z,18.96
2023-05-08T14:33:49.338Z,18.98
2023-05-08T14:36:52.930Z,18.88
2023-05-08T14:39:54.842Z,18.88
2023-05-08T14:42:56.690Z,18.74
2023-05-08T14:45:58.338Z,18.73
2023-05-08T14:49:00.068Z,18.67
2023-05-08T14:52:03.366Z,18.78
2023-05-08T14:55:06.584Z,18.79
2023-05-08T14:58:11.744Z,18.45
2023-05-08T15:01:13.480Z,18.44
2023-05-08T15:04:15.238Z,18.19
2023-05-08T15:07:18.367Z,18.00
2023-05-08T15:10:20.259Z,18.06
2023-05-08T15:13:21.964Z,17.99
2023-05-08T15:16:23.907Z,17.78
2023-05-08T15:19:25.653Z,17.78
2023-05-08T15:22:28.647Z,17.55
2023-05-08T15:25:30.509Z,17.35
2023-05-08T15:28:32.228Z,17.32
2023-05-08T15:31:34.156Z,17.19
2023-05-08T15:34:37.043Z,17.16
2023-05-08T15:37:41.427Z,17.02
2023-05-08T15:40:43.175Z,16.91
2023-05-08T15:43:46.264Z,16.79
2023-05-08T15:46:47.954Z,16.72
2023-05-08T15:49:49.652Z,16.40
2023-05-08T15:52:52.665Z,16.31
2023-05-08T15:55:54.459Z,16.19
2023-05-08T15:58:56.326Z,16.09
2023-05-08T16:01:58.102Z,16.03
2023-05-08T16:04:59.733Z,15.67
2023-05-08T16:08:02.784Z,15.69
2023-05-08T16:11:04.654Z,15.49
2023-05-08T16:14:06.696Z,15.40
2023-05-08T16:17:08.477Z,15.38
2023-05-08T16:20:11.449Z,15.28
2023-05-08T16:23:14.509Z,15.18
2023-05-08T16:26:16.180Z,15.06
2023-05-08T16:29:17.833Z,15.01
2023-05-08T16:32:20.303Z,14.87
2023-05-08T16:35:21.939Z,14.77
2023-05-08T16:38:25.093Z,14.70
2023-05-08T16:41:26.801Z,14.50
2023-05-08T16:44:28.490Z,14.38
2023-05-08T16:47:34.473Z,14.32
2023-05-08T16:50:36.121Z,14.12
2023-05-08T16:53:39.380Z,14.01
2023-05-08T16:56:41.032Z,13.86
2023-05-08T16:59:42.849Z,13.75
2023-05-08T17:02:44.567Z,13.69
2023-05-08T17:05:46.440Z,13.56
2023-05-08T17:08:49.811Z,13.50
2023-05-08T17:11:51.628Z,13.44
2023-05-08T17:14:53.708Z,13.37
2023-05-08T17:17:55.648Z,13.24
2023-05-08T17:20:57.337Z,13.19
2023-05-08T17:24:01.160Z,13.15
2023-05-08T17:27:02.965Z,13.04
2023-05-08T17:30:05.636Z,12.86
2023-05-08T17:33:07.507Z,12.78
2023-05-08T17:36:10.143Z,12.68
2023-05-08T17:39:14.203Z,12.61
2023-05-08T17:42:16.129Z,12.53
2023-05-08T17:45:17.808Z,12.44
2023-05-08T17:48:19.523Z,12.43
2023-05-08T17:51:21.206Z,12.31
2023-05-08T17:54:24.316Z,12.18
2023-05-08T17:57:26.477Z,12.07
2023-05-08T18:00:28.216Z,11.99
2023-05-08T18:03:30.433Z,11.94
2023-05-08T18:06:32.195Z,11.84
2023-05-08T18:09:35.518Z,11.79
2023-05-08T18:12:40.327Z,11.64
2023-05-08T18:15:42.423Z,11.51
2023-05-08T18:18:45.152Z,11.53
2023-05-08T18:21:46.862Z,11.41
2023-05-08T18:24:50.154Z,11.35
2023-05-08T18:27:52.383Z,11.34
2023-05-08T18:30:54.410Z,11.20
2023-05-08T18:33:56.392Z,11.12
2023-05-08T18:36:58.303Z,11.13
2023-05-08T18:40:01.625Z,10.96
2023-05-08T18:43:03.773Z,10.95
2023-05-08T18:46:09.258Z,10.86
2023-05-08T18:49:11.002Z,10.78
2023-05-08T18:52:13.041Z,10.71
2023-05-08T18:55:16.511Z,10.71
2023-05-08T18:58:18.076Z,10.66
2023-05-08T19:01:20.050Z,10.59
2023-05-08T19:04:22.153Z,10.51
2023-05-08T19:07:24.188Z,10.47
2023-05-08T19:10:27.314Z,10.32
2023-05-08T19:13:29.373Z,10.32
2023-05-08T19:16:31.247Z,10.28
2023-05-08T19:19:33.262Z,10.26
2023-05-08T19:22:36.058Z,10.24
2023-05-08T19:25:39.342Z,10.15
2023-05-08T19:28:41.253Z,10.11
2023-05-08T19:31:43.353Z,10.00
2023-05-08T19:34:45.041Z,9.98
2023-05-08T19:37:46.767Z,10.02
2023-05-08T19:40:57.020Z,9.95
2023-05-08T19:43:59.777Z,9.92
2023-05-08T19:47:03.712Z,9.87
2023-05-08T19:50:07.085Z,9.85
2023-05-08T19:53:08.689Z,9.84
2023-05-08T19:56:11.863Z,9.73
2023-05-08T19:59:13.570Z,9.61
2023-05-08T20:02:15.517Z,9.53
2023-05-08T20:05:22.545Z,9.49
2023-05-08T20:08:24.997Z,9.42
2023-05-08T20:11:28.156Z,9.37
2023-05-08T20:14:29.856Z,9.36
2023-05-08T20:17:32.100Z,9.32
2023-05-08T20:20:33.898Z,9.32
2023-05-08T20:23:35.498Z,9.33
2023-05-08T20:26:38.616Z,9.22
2023-05-08T20:29:40.265Z,9.18
2023-05-08T20:32:41.927Z,9.11
2023-05-08T20:35:43.530Z,9.11
2023-05-08T20:38:45.503Z,9.07
2023-05-08T20:41:48.537Z,9.16
2023-05-08T20:44:50.270Z,9.05
2023-05-08T20:47:52.734Z,8.89
2023-05-08T20:50:54.638Z,8.86
2023-05-08T20:53:56.513Z,8.77
2023-05-08T20:56:59.557Z,8.69
2023-05-08T21:00:01.180Z,8.59
2023-05-08T21:03:03.207Z,8.58
2023-05-08T21:06:05.144Z,8.60
2023-05-08T21:09:07.162Z,8.61
2023-05-08T21:12:10.584Z,8.57
2023-05-08T21:15:12.437Z,8.54
2023-05-08T21:18:14.169Z,8.52
2023-05-08T21:21:16.074Z,8.49
2023-05-08T21:24:17.836Z,8.50
2023-05-08T21:27:20.985Z,8.47
2023-05-08T21:30:22.744Z,8.42
2023-05-08T21:33:24.383Z,8.38
2023-05-08T21:36:26.011Z,8.49
2023-05-08T21:39:28.036Z,8.30
2023-05-08T21:42:31.206Z,8.31
2023-05-08T21:45:33.349Z,8.26
2023-05-08T21:48:35.357Z,8.14
2023-05-08T21:51:37.440Z,8.11
2023-05-08T21:54:39.347Z,8.11
2023-05-08T21:57:42.370Z,8.03
2023-05-08T22:00:44.114Z,7.98
2023-05-08T22:03:46.289Z,7.92
2023-05-08T22:06:48.014Z,7.88
2023-05-08T22:09:49.676Z,7.84
2023-05-08T22:12:52.805Z,7.81
2023-05-08T22:15:54.533Z,7.78
2023-05-08T22:18:56.267Z,7.72
2023-05-08T22:21:58.234Z,7.72
2023-05-08T22:25:00.162Z,7.66
2023-05-08T22:28:03.232Z,7.66
2023-05-08T22:31:05.071Z,7.66
2023-05-08T22:34:06.685Z,7.71
2023-05-08T22:37:08.487Z,7.70
2023-05-08T22:40:11.111Z,7.63
2023-05-08T22:43:14.194Z,7.55
2023-05-08T22:46:16.163Z,7.55
2023-05-08T22:49:17.897Z,7.49
2023-05-08T22:52:19.551Z,7.47
2023-05-08T22:55:21.366Z,7.48
2023-05-08T22:58:24.709Z,7.42
2023-05-08T23:01:26.546Z,7.36
2023-05-08T23:04:28.261Z,7.40
2023-05-08T23:07:30.324Z,7.37
2023-05-08T23:10:32.319Z,7.39
2023-05-08T23:13:35.403Z,7.41
2023-05-08T23:16:37.591Z,7.41
2023-05-08T23:19:39.345Z,7.38
2023-05-08T23:22:40.989Z,7.39
2023-05-08T23:25:43.111Z,7.35
2023-05-08T23:28:46.213Z,7.53
2023-05-08T23:31:48.181Z,7.47
2023-05-08T23:34:49.920Z,7.42
2023-05-08T23:37:51.581Z,7.42
2023-05-08T23:40:53.516Z,7.39
2023-05-08T23:43:56.563Z,7.35
2023-05-08T23:46:58.148Z,7.31
2023-05-08T23:49:59.765Z,7.32
2023-05-08T23:53:01.744Z,7.28
2023-05-08T23:56:03.510Z,7.23
2023-05-08T23:59:06.642Z,7.20
